Time;durP1;ratioP1;P1;durP2;ratioP2;P2;SDS_P1;SDS_P2;PMS_P1;PMS_P2;Temp;Humidity;BMP_temperature;BMP_pressure;BME280_temperature;BME280_humidity;BME280_pressure;Samples;Min_cycle;Max_cycle;Signal;HPM_P1;HPM_P2
2021/05/25 00:00:28;;;;;;;14.30;10.53;;;10.50;99.90;;;;;;6295423;22;20791;-77
2021/05/25 00:02:55;;;;;;;14.83;11.47;;;10.50;99.90;;;;;;6295194;22;20172;-77
2021/05/25 00:05:24;;;;;;;15.33;12.07;;;10.50;99.90;;;;;;6296021;22;20172;-77
2021/05/25 00:07:51;;;;;;;13.80;11.43;;;10.50;99.90;;;;;;6294288;22;20183;-78
2021/05/25 00:10:17;;;;;;;16.13;11.40;;;10.50;99.90;;;;;;6295128;22;20198;-78
2021/05/25 00:12:43;;;;;;;19.70;11.97;;;10.50;99.90;;;;;;6295863;22;20176;-78
2021/05/25 00:15:12;;;;;;;15.80;11.17;;;10.50;99.90;;;;;;6294241;22;20175;-78
2021/05/25 00:17:40;;;;;;;15.27;10.80;;;10.50;99.90;;;;;;6294815;22;20176;-78
2021/05/25 00:20:09;;;;;;;15.17;11.70;;;10.50;99.90;;;;;;6295150;22;20253;-78
2021/05/25 00:22:38;;;;;;;17.10;12.43;;;10.50;99.90;;;;;;6294948;22;20180;-77
2021/05/25 00:25:05;;;;;;;16.43;11.77;;;10.50;99.90;;;;;;6295037;22;20176;-77
2021/05/25 00:27:32;;;;;;;14.67;11.13;;;10.50;99.90;;;;;;6295843;22;20191;-78
2021/05/25 00:29:59;;;;;;;21.47;14.13;;;10.50;99.90;;;;;;6294878;22;20172;-77
2021/05/25 00:32:25;;;;;;;17.73;12.93;;;10.40;99.90;;;;;;6294834;22;20172;-78
2021/05/25 00:34:52;;;;;;;17.27;12.20;;;10.40;99.90;;;;;;6295102;22;20171;-78
2021/05/25 00:37:19;;;;;;;17.10;10.20;;;10.40;99.90;;;;;;6295052;22;20233;-78
2021/05/25 00:39:45;;;;;;;14.73;10.13;;;10.40;99.90;;;;;;6294613;22;20203;-78
2021/05/25 00:42:11;;;;;;;11.10;9.00;;;10.40;99.90;;;;;;6294426;22;20172;-78
2021/05/25 00:44:38;;;;;;;11.80;8.00;;;10.40;99.90;;;;;;6296121;22;20171;-78
2021/05/25 00:47:04;;;;;;;9.43;7.77;;;10.30;99.90;;;;;;6296907;22;20213;-78
2021/05/25 00:49:31;;;;;;;10.87;6.47;;;10.30;99.90;;;;;;6296410;22;20229;-77
2021/05/25 00:51:59;;;;;;;9.23;6.37;;;10.30;99.90;;;;;;6295858;22;20762;-78
2021/05/25 00:54:25;;;;;;;7.20;5.50;;;10.30;99.90;;;;;;6295791;22;20960;-77
2021/05/25 00:56:52;;;;;;;7.90;5.23;;;10.30;99.90;;;;;;6295889;22;20172;-77
2021/05/25 00:59:18;;;;;;;7.03;4.17;;;10.30;99.90;;;;;;6295437;22;20628;-77
2021/05/25 01:01:45;;;;;;;6.53;4.33;;;10.30;99.90;;;;;;6296279;22;20714;-77
2021/05/25 01:04:12;;;;;;;6.53;4.60;;;10.30;99.90;;;;;;6296514;22;20178;-77
2021/05/25 01:06:38;;;;;;;11.37;4.50;;;10.30;99.90;;;;;;6296197;22;20233;-78
2021/05/25 01:09:06;;;;;;;7.23;5.00;;;10.30;99.90;;;;;;6297057;22;20179;-76
2021/05/25 01:11:34;;;;;;;8.63;4.77;;;10.30;99.90;;;;;;6295031;22;20252;-77
2021/05/25 01:14:01;;;;;;;5.30;3.70;;;10.30;99.90;;;;;;6295873;22;20172;-77
2021/05/25 01:16:29;;;;;;;6.63;3.90;;;10.30;99.90;;;;;;6296256;22;20234;-76
2021/05/25 01:18:56;;;;;;;6.50;4.23;;;10.30;99.90;;;;;;6294107;22;20202;-77
2021/05/25 01:21:24;;;;;;;10.30;3.67;;;10.30;99.90;;;;;;6295972;22;20176;-78
2021/05/25 01:23:51;;;;;;;4.60;3.60;;;10.20;99.90;;;;;;6296082;22;20176;-77
2021/05/25 01:26:18;;;;;;;4.37;3.30;;;10.20;99.90;;;;;;6295988;22;20825;-77
2021/05/25 01:28:46;;;;;;;7.53;3.83;;;10.20;99.90;;;;;;6296267;22;20183;-78
2021/05/25 01:31:13;;;;;;;5.60;3.30;;;10.20;99.90;;;;;;6296749;22;20584;-76
2021/05/25 01:33:40;;;;;;;6.23;3.60;;;10.20;99.90;;;;;;6294998;22;20183;-78
2021/05/25 01:36:08;;;;;;;5.17;3.63;;;10.20;99.90;;;;;;6296480;22;20183;-76
2021/05/25 01:38:35;;;;;;;5.87;3.20;;;10.20;99.90;;;;;;6296040;22;20176;-77
2021/05/25 01:41:03;;;;;;;6.33;3.07;;;10.20;99.90;;;;;;6295532;22;20179;-77
2021/05/25 01:43:29;;;;;;;4.97;3.03;;;10.20;99.90;;;;;;6295628;22;20200;-76
2021/05/25 01:45:56;;;;;;;5.23;2.93;;;10.20;99.90;;;;;;6295850;22;20176;-76
2021/05/25 01:48:22;;;;;;;5.63;3.53;;;10.20;99.90;;;;;;6295865;22;20497;-77
2021/05/25 01:50:49;;;;;;;5.00;3.23;;;10.20;99.90;;;;;;6295831;22;20176;-75
2021/05/25 01:53:17;;;;;;;7.13;3.40;;;10.10;99.90;;;;;;6296278;22;20317;-77
2021/05/25 01:55:47;;;;;;;4.67;3.40;;;10.10;99.90;;;;;;6295030;22;20172;-78
2021/05/25 01:58:16;;;;;;;5.67;3.57;;;10.10;99.90;;;;;;6296159;22;20592;-77
2021/05/25 02:00:44;;;;;;;7.17;4.60;;;10.10;99.90;;;;;;6295329;22;20213;-78
2021/05/25 02:03:11;;;;;;;6.50;4.70;;;10.10;99.90;;;;;;6295553;22;20164;-76
2021/05/25 02:05:38;;;;;;;6.77;3.83;;;10.10;99.90;;;;;;6296085;22;20631;-78
2021/05/25 02:08:07;;;;;;;5.00;4.07;;;10.00;99.90;;;;;;6295973;22;20317;-76
2021/05/25 02:10:35;;;;;;;7.93;5.13;;;10.00;99.90;;;;;;6296322;22;20225;-77
2021/05/25 02:13:03;;;;;;;5.93;5.33;;;10.00;99.90;;;;;;6295402;22;20176;-78
2021/05/25 02:15:31;;;;;;;10.67;5.70;;;10.00;99.90;;;;;;6294903;22;20767;-78
2021/05/25 02:18:03;;;;;;;7.97;5.90;;;10.00;99.90;;;;;;6296335;22;20172;-77
2021/05/25 02:20:30;;;;;;;8.30;6.20;;;10.00;99.90;;;;;;6295830;22;20187;-77
2021/05/25 02:22:56;;;;;;;8.53;6.80;;;9.90;99.90;;;;;;6295274;22;20244;-79
2021/05/25 02:25:22;;;;;;;9.03;6.90;;;9.90;99.90;;;;;;6295192;22;20187;-78
2021/05/25 02:27:49;;;;;;;11.10;7.87;;;9.90;99.90;;;;;;6296138;22;20179;-77
2021/05/25 02:30:16;;;;;;;14.23;7.70;;;9.90;99.90;;;;;;6295220;22;20179;-77
2021/05/25 02:32:43;;;;;;;11.53;7.67;;;9.90;99.90;;;;;;6296208;22;20172;-79
2021/05/25 02:35:10;;;;;;;14.23;7.83;;;9.90;99.90;;;;;;6295120;22;20194;-79
2021/05/25 02:37:37;;;;;;;11.27;7.63;;;9.90;99.90;;;;;;6294698;22;20171;-77
2021/05/25 02:40:04;;;;;;;10.80;7.60;;;9.90;99.90;;;;;;6294767;22;20184;-80
2021/05/25 02:42:31;;;;;;;13.43;7.83;;;9.90;99.90;;;;;;6294539;22;20203;-78
2021/05/25 02:44:57;;;;;;;10.37;7.50;;;9.90;99.90;;;;;;6294200;22;20630;-77
2021/05/25 02:47:24;;;;;;;11.83;8.20;;;9.90;99.90;;;;;;6295798;22;20172;-77
2021/05/25 02:49:51;;;;;;;14.37;7.80;;;9.90;99.90;;;;;;6295615;22;20168;-77
2021/05/25 02:52:17;;;;;;;9.70;6.33;;;9.80;99.90;;;;;;6295362;22;20191;-77
2021/05/25 02:54:43;;;;;;;9.33;6.53;;;9.80;99.90;;;;;;6295020;22;20168;-78
2021/05/25 02:57:10;;;;;;;12.80;7.10;;;9.80;99.90;;;;;;6294791;22;20529;-78
2021/05/25 02:59:36;;;;;;;10.80;6.30;;;9.80;99.90;;;;;;6294830;22;20203;-77
2021/05/25 03:02:03;;;;;;;8.47;6.03;;;9.80;99.90;;;;;;6294438;22;20171;-78
2021/05/25 03:04:30;;;;;;;11.77;6.37;;;9.70;99.90;;;;;;6294842;22;20169;-77
2021/05/25 03:06:57;;;;;;;10.83;5.97;;;9.70;99.90;;;;;;6295433;22;20253;-77
2021/05/25 03:09:23;;;;;;;12.40;5.70;;;9.60;99.90;;;;;;6295468;22;20172;-77
2021/05/25 03:11:49;;;;;;;9.07;5.30;;;9.60;99.90;;;;;;6294457;22;20525;-76
2021/05/25 03:14:15;;;;;;;5.53;3.90;;;9.60;99.90;;;;;;6296088;22;20180;-77
2021/05/25 03:16:41;;;;;;;5.13;3.83;;;9.60;99.90;;;;;;6294953;22;20172;-77
2021/05/25 03:19:10;;;;;;;6.07;3.17;;;9.50;99.90;;;;;;6294457;22;20191;-77
2021/05/25 03:21:36;;;;;;;6.00;3.10;;;9.50;99.90;;;;;;6295293;22;20474;-77
2021/05/25 03:24:04;;;;;;;3.83;2.80;;;9.40;99.90;;;;;;6294649;22;20579;-77
2021/05/25 03:26:30;;;;;;;5.83;2.97;;;9.40;99.90;;;;;;6295503;22;20233;-77
2021/05/25 03:28:56;;;;;;;5.70;2.70;;;9.40;99.90;;;;;;6295528;22;20172;-78
2021/05/25 03:31:23;;;;;;;7.37;4.10;;;9.40;99.90;;;;;;6295421;22;20172;-77
2021/05/25 03:33:49;;;;;;;6.83;4.10;;;9.40;99.90;;;;;;6294868;22;20171;-77
2021/05/25 03:36:15;;;;;;;5.70;4.43;;;9.40;99.90;;;;;;6296283;22;20255;-77
2021/05/25 03:38:42;;;;;;;8.80;5.87;;;9.40;99.90;;;;;;6294707;22;20176;-78
2021/05/25 03:41:09;;;;;;;8.87;5.47;;;9.40;99.90;;;;;;6294837;22;20176;-77
2021/05/25 03:43:35;;;;;;;10.67;6.77;;;9.30;99.90;;;;;;6294404;22;20196;-77
2021/05/25 03:46:02;;;;;;;13.57;7.93;;;9.30;99.90;;;;;;6267263;22;20176;-77
2021/05/25 03:48:28;;;;;;;15.00;7.20;;;9.30;99.90;;;;;;6294479;22;20225;-77
2021/05/25 03:50:54;;;;;;;12.73;8.30;;;9.30;99.90;;;;;;6294826;22;20166;-77
2021/05/25 03:53:21;;;;;;;14.30;7.70;;;9.30;99.90;;;;;;6294849;22;20179;-77
2021/05/25 03:55:52;;;;;;;14.37;8.43;;;9.30;99.90;;;;;;6295429;22;20275;-77
2021/05/25 04:01:04;;;;;;;12.87;9.30;;;9.30;99.90;;;;;;6293906;22;20349;-76
2021/05/25 04:03:30;;;;;;;13.27;9.20;;;9.30;99.90;;;;;;6294260;22;20476;-76
2021/05/25 04:05:57;;;;;;;13.27;9.67;;;9.30;99.90;;;;;;6294420;22;20164;-76
2021/05/25 04:08:24;;;;;;;13.17;10.07;;;9.20;99.90;;;;;;6294094;22;20234;-79
2021/05/25 04:10:50;;;;;;;13.03;10.03;;;9.30;99.90;;;;;;6294755;22;20187;-77
2021/05/25 04:13:17;;;;;;;15.63;9.53;;;9.30;99.90;;;;;;6294535;22;20168;-76
2021/05/25 04:15:47;;;;;;;14.23;9.83;;;9.30;99.90;;;;;;6294324;22;20182;-77
2021/05/25 04:18:14;;;;;;;13.40;9.47;;;9.30;99.90;;;;;;6295078;22;20585;-76
2021/05/25 04:20:41;;;;;;;12.23;9.70;;;9.30;99.90;;;;;;6296701;22;20198;-78
2021/05/25 04:23:07;;;;;;;17.73;11.27;;;9.30;99.90;;;;;;6296350;22;20380;-76
2021/05/25 04:25:34;;;;;;;15.93;10.13;;;9.30;99.90;;;;;;6297074;22;20199;-76
2021/05/25 04:28:00;;;;;;;12.97;9.93;;;9.40;99.90;;;;;;6296576;22;20174;-77
2021/05/25 04:30:27;;;;;;;12.00;8.87;;;9.40;99.90;;;;;;6296733;22;20179;-77
2021/05/25 04:32:54;;;;;;;17.37;10.17;;;9.40;99.90;;;;;;6297131;22;20182;-76
2021/05/25 04:35:20;;;;;;;16.13;10.73;;;9.40;99.90;;;;;;6295367;22;20191;-77
2021/05/25 04:37:47;;;;;;;15.00;10.47;;;9.50;99.90;;;;;;6296563;22;20176;-77
2021/05/25 04:40:14;;;;;;;13.00;9.87;;;9.50;99.90;;;;;;6297096;22;20272;-78
2021/05/25 04:42:40;;;;;;;16.03;10.10;;;9.60;99.90;;;;;;6295608;22;20167;-77
2021/05/25 04:45:08;;;;;;;14.50;10.33;;;9.60;99.90;;;;;;6297173;22;20230;-78
2021/05/25 04:47:35;;;;;;;13.47;8.97;;;9.60;99.90;;;;;;6296812;22;20172;-78
2021/05/25 04:50:04;;;;;;;17.03;8.97;;;9.70;99.90;;;;;;6295508;22;20580;-78
2021/05/25 04:52:31;;;;;;;14.80;9.23;;;9.70;99.90;;;;;;6296526;22;20169;-77
2021/05/25 04:54:57;;;;;;;11.73;9.73;;;9.80;99.90;;;;;;6295224;22;20204;-77
2021/05/25 04:57:23;;;;;;;12.70;8.63;;;9.80;99.90;;;;;;6295032;22;20183;-77
2021/05/25 04:59:50;;;;;;;12.47;9.20;;;9.90;99.90;;;;;;6296353;22;20286;-77
2021/05/25 05:02:16;;;;;;;14.53;9.37;;;10.00;99.90;;;;;;6295915;22;20180;-78
2021/05/25 05:04:43;;;;;;;12.73;9.00;;;10.00;99.90;;;;;;6294741;22;20861;-78
2021/05/25 05:07:11;;;;;;;13.33;8.90;;;10.00;99.90;;;;;;6296251;22;20178;-78
2021/05/25 05:09:37;;;;;;;14.47;9.43;;;10.10;99.90;;;;;;6295946;22;20172;-78
2021/05/25 05:12:04;;;;;;;12.43;9.57;;;10.20;99.90;;;;;;6294817;22;20218;-77
2021/05/25 05:14:31;;;;;;;12.43;8.77;;;10.20;99.90;;;;;;6295764;22;20175;-78
2021/05/25 05:16:57;;;;;;;13.17;9.07;;;10.20;99.90;;;;;;6294629;22;20184;-77
2021/05/25 05:19:23;;;;;;;10.10;8.63;;;10.30;99.90;;;;;;6267651;22;20215;-77
2021/05/25 05:21:50;;;;;;;14.47;9.13;;;10.30;99.90;;;;;;6295265;22;20168;-76
2021/05/25 05:24:18;;;;;;;11.37;8.83;;;10.40;99.90;;;;;;6296462;22;20210;-77
2021/05/25 05:26:44;;;;;;;11.33;7.80;;;10.40;99.90;;;;;;6295507;22;20179;-76
2021/05/25 05:29:11;;;;;;;10.30;8.90;;;10.50;99.90;;;;;;6295416;22;20164;-77
2021/05/25 05:31:37;;;;;;;14.87;9.10;;;10.70;99.90;;;;;;6295154;22;20179;-77
2021/05/25 05:34:03;;;;;;;11.80;7.83;;;10.80;99.90;;;;;;6296327;22;20172;-76
2021/05/25 05:36:30;;;;;;;11.37;8.77;;;10.80;99.90;;;;;;6295761;22;20446;-77
2021/05/25 05:38:56;;;;;;;11.33;8.07;;;10.90;99.90;;;;;;6296073;22;20982;-76
2021/05/25 05:41:23;;;;;;;8.40;7.13;;;10.80;99.90;;;;;;6296110;22;20172;-76
2021/05/25 05:43:50;;;;;;;10.10;7.37;;;10.90;99.90;;;;;;6295525;22;20718;-76
2021/05/25 05:46:16;;;;;;;11.00;7.50;;;10.90;99.90;;;;;;6295467;22;20549;-77
2021/05/25 05:48:43;;;;;;;12.57;7.47;;;11.00;99.90;;;;;;6295802;22;20178;-76
2021/05/25 05:51:09;;;;;;;14.80;8.30;;;11.00;99.90;;;;;;6295155;22;20168;-77
2021/05/25 05:53:36;;;;;;;18.00;8.33;;;11.00;99.90;;;;;;6294797;22;20172;-77
2021/05/25 05:56:02;;;;;;;18.03;9.13;;;11.00;99.90;;;;;;6295199;22;20176;-77
2021/05/25 05:58:29;;;;;;;13.37;7.83;;;11.00;99.90;;;;;;6295176;22;20196;-79
2021/05/25 06:00:55;;;;;;;10.77;7.17;;;10.90;99.90;;;;;;6295076;22;20199;-77
2021/05/25 06:03:22;;;;;;;10.63;6.50;;;10.90;99.90;;;;;;6295512;22;20168;-77
2021/05/25 06:05:48;;;;;;;9.43;3.30;;;10.90;99.90;;;;;;6295370;22;20550;-77
2021/05/25 06:08:15;;;;;;;7.97;2.77;;;11.00;99.90;;;;;;6294955;22;20180;-78
2021/05/25 06:10:48;;;;;;;13.03;2.40;;;11.10;99.90;;;;;;6295031;22;20171;-78
2021/05/25 06:13:15;;;;;;;10.80;2.50;;;11.30;99.90;;;;;;6294784;22;20270;-78
2021/05/25 06:15:42;;;;;;;18.80;2.73;;;11.50;99.90;;;;;;6294592;22;20709;-79
2021/05/25 06:18:08;;;;;;;13.67;2.47;;;11.80;99.90;;;;;;6294971;22;20583;-77
2021/05/25 06:20:35;;;;;;;12.50;3.33;;;12.10;99.90;;;;;;6294966;22;20221;-76
2021/05/25 06:23:01;;;;;;;18.23;4.40;;;12.40;99.90;;;;;;6294759;22;20183;-77
2021/05/25 06:25:28;;;;;;;13.57;3.30;;;12.80;99.90;;;;;;6294657;22;20248;-77
2021/05/25 06:27:56;;;;;;;7.73;2.03;;;13.10;99.90;;;;;;6294240;22;20171;-77
2021/05/25 06:30:45;;;;;;;6.83;2.57;;;13.30;99.90;;;;;;6269701;22;20531;-77
2021/05/25 06:33:11;;;;;;;10.93;2.27;;;13.30;99.90;;;;;;6295386;22;20164;-76
2021/05/25 06:35:38;;;;;;;9.27;2.60;;;13.30;99.90;;;;;;6267100;22;20647;-77
2021/05/25 06:38:04;;;;;;;11.83;3.33;;;13.30;99.90;;;;;;6295094;22;20183;-78
2021/05/25 06:40:31;;;;;;;13.40;3.00;;;13.30;99.90;;;;;;6295024;22;20203;-75
2021/05/25 06:42:57;;;;;;;13.17;3.03;;;13.40;99.90;;;;;;6294524;22;20454;-76
2021/05/25 06:45:25;;;;;;;11.63;3.10;;;13.60;99.90;;;;;;6295959;22;20226;-78
2021/05/25 06:47:53;;;;;;;12.07;2.53;;;13.70;99.90;;;;;;6270651;22;20176;-78
2021/05/25 06:50:19;;;;;;;10.20;2.43;;;13.80;99.90;;;;;;6294440;22;20165;-78
2021/05/25 06:52:46;;;;;;;9.07;2.47;;;13.80;99.90;;;;;;6294863;22;20175;-77
2021/05/25 06:55:14;;;;;;;13.47;2.40;;;13.90;99.90;;;;;;6295218;22;20172;-76
2021/05/25 06:57:41;;;;;;;10.00;2.30;;;13.90;99.90;;;;;;6294957;22;20183;-77
2021/05/25 07:00:10;;;;;;;12.90;2.80;;;14.00;99.90;;;;;;6294635;22;20238;-76
2021/05/25 07:02:37;;;;;;;12.30;2.37;;;14.00;99.90;;;;;;6294161;22;20176;-77
2021/05/25 07:05:07;;;;;;;8.23;1.97;;;13.80;99.90;;;;;;6294001;22;20638;-77
2021/05/25 07:07:33;;;;;;;7.13;2.23;;;13.80;99.90;;;;;;6295335;22;20483;-77
2021/05/25 07:09:59;;;;;;;8.67;2.17;;;13.70;99.90;;;;;;6293911;22;20824;-76
2021/05/25 07:12:26;;;;;;;8.90;2.10;;;13.70;99.90;;;;;;6293475;22;20175;-76
2021/05/25 07:14:52;;;;;;;6.33;1.83;;;13.60;99.90;;;;;;6294733;22;20221;-77
2021/05/25 07:17:19;;;;;;;5.63;1.90;;;13.60;99.90;;;;;;6294380;22;20222;-79
2021/05/25 07:19:45;;;;;;;5.67;2.07;;;13.60;99.90;;;;;;6294368;22;20571;-76
2021/05/25 07:22:12;;;;;;;9.77;1.80;;;13.50;99.90;;;;;;6292615;22;20176;-76
2021/05/25 07:24:40;;;;;;;4.30;1.83;;;13.50;99.90;;;;;;6291704;22;20168;-77
2021/05/25 07:27:07;;;;;;;18.87;3.30;;;13.40;99.90;;;;;;6292029;22;20184;-77
2021/05/25 07:29:33;;;;;;;10.77;3.20;;;13.30;99.90;;;;;;6291696;22;20179;-77
2021/05/25 07:31:59;;;;;;;7.73;2.00;;;13.20;99.90;;;;;;6292077;22;20168;-76
2021/05/25 07:34:26;;;;;;;10.33;2.80;;;13.10;99.90;;;;;;6293171;22;20786;-76
2021/05/25 07:36:53;;;;;;;10.83;2.87;;;13.00;99.90;;;;;;6294300;22;20176;-77
2021/05/25 07:39:20;;;;;;;9.33;2.17;;;13.00;99.90;;;;;;6293042;22;20684;-75
2021/05/25 07:41:47;;;;;;;10.07;3.03;;;13.00;99.90;;;;;;6294053;22;20168;-78
2021/05/25 07:44:13;;;;;;;9.70;2.90;;;13.00;99.90;;;;;;6294333;22;20208;-76
2021/05/25 07:46:40;;;;;;;9.97;2.90;;;12.90;99.90;;;;;;6293801;22;20168;-76
2021/05/25 07:49:07;;;;;;;11.97;2.77;;;12.90;99.90;;;;;;6294226;22;20261;-77
2021/05/25 07:51:33;;;;;;;6.67;1.80;;;12.90;99.90;;;;;;6294566;22;20178;-76
2021/05/25 07:54:00;;;;;;;9.33;2.90;;;13.00;99.90;;;;;;6291337;22;20168;-77
2021/05/25 07:56:27;;;;;;;9.60;2.17;;;13.00;99.90;;;;;;6294278;22;20184;-76
2021/05/25 07:58:54;;;;;;;7.17;1.77;;;13.10;99.90;;;;;;6293438;22;20664;-78
2021/05/25 08:01:20;;;;;;;9.17;1.80;;;13.10;99.90;;;;;;6293558;22;20195;-77
2021/05/25 08:03:47;;;;;;;8.13;1.90;;;13.00;99.90;;;;;;6295263;22;20178;-77
2021/05/25 08:06:13;;;;;;;7.90;1.73;;;13.00;99.90;;;;;;6295042;22;20176;-76
2021/05/25 08:08:39;;;;;;;8.23;1.97;;;13.00;99.90;;;;;;6266426;22;20972;-76
2021/05/25 08:11:11;;;;;;;6.27;2.03;;;13.10;99.90;;;;;;6294191;22;20498;-76
2021/05/25 08:13:39;;;;;;;5.70;1.73;;;13.00;99.90;;;;;;6293913;22;20168;-74
2021/05/25 08:16:05;;;;;;;6.93;2.57;;;13.10;99.90;;;;;;6294022;22;20168;-77
2021/05/25 08:18:44;;;;;;;4.77;1.87;;;13.20;99.90;;;;;;6293558;22;20176;-76
2021/05/25 08:21:10;;;;;;;6.30;1.97;;;13.50;99.90;;;;;;6293660;22;20256;-76
2021/05/25 08:23:37;;;;;;;5.13;1.97;;;13.70;99.90;;;;;;6294374;22;20182;-78
2021/05/25 08:26:05;;;;;;;7.60;2.10;;;13.90;99.90;;;;;;6294163;22;20234;-77
2021/05/25 08:28:31;;;;;;;3.73;1.53;;;14.10;99.90;;;;;;6293155;22;20304;-76
2021/05/25 08:30:59;;;;;;;13.10;3.03;;;14.30;99.90;;;;;;6293420;22;20172;-76
2021/05/25 08:33:25;;;;;;;6.50;2.07;;;14.40;99.90;;;;;;6293544;22;20431;-79
2021/05/25 08:35:52;;;;;;;5.33;2.03;;;14.60;99.90;;;;;;6293585;22;20195;-76
2021/05/25 08:38:21;;;;;;;7.17;2.60;;;14.70;99.90;;;;;;6293673;22;20258;-76
2021/05/25 08:40:49;;;;;;;8.23;2.40;;;14.90;99.90;;;;;;6293111;22;20227;-77
2021/05/25 08:43:16;;;;;;;6.60;2.80;;;15.00;99.90;;;;;;6293726;22;20269;-77
2021/05/25 08:45:43;;;;;;;8.60;3.00;;;15.10;99.90;;;;;;6293675;22;20915;-76
2021/05/25 08:48:11;;;;;;;8.37;2.30;;;15.30;99.90;;;;;;6294167;22;20172;-78
2021/05/25 08:50:38;;;;;;;11.80;2.47;;;15.60;99.90;;;;;;6291386;22;20948;-77
2021/05/25 08:53:06;;;;;;;9.10;2.63;;;15.90;99.90;;;;;;6293623;22;20168;-77
2021/05/25 08:55:35;;;;;;;6.43;2.13;;;16.20;99.90;;;;;;6293755;22;20207;-77
2021/05/25 08:58:04;;;;;;;6.67;2.53;;;16.40;99.90;;;;;;6293826;22;20203;-76
2021/05/25 09:00:30;;;;;;;7.30;2.60;;;16.60;99.90;;;;;;6293167;22;20203;-77
2021/05/25 09:02:57;;;;;;;7.73;2.13;;;16.70;99.90;;;;;;6292954;22;20377;-77
2021/05/25 09:05:25;;;;;;;8.30;2.40;;;16.70;99.90;;;;;;6294791;22;20630;-78
2021/05/25 09:07:53;;;;;;;7.57;2.23;;;16.70;99.90;;;;;;6295291;22;20553;-78
2021/05/25 09:10:23;;;;;;;9.40;2.60;;;16.80;99.90;;;;;;6295226;22;20183;-80
2021/05/25 09:12:51;;;;;;;8.63;2.43;;;16.90;99.90;;;;;;6294656;22;20256;-81
2021/05/25 09:15:34;;;;;;;5.93;1.80;;;16.90;99.90;;;;;;6295269;22;20168;-76
2021/05/25 09:18:04;;;;;;;7.97;2.10;;;17.00;99.90;;;;;;6294562;22;20549;-78
2021/05/25 09:20:46;;;;;;;9.43;2.13;;;17.00;99.90;;;;;;6295092;22;20196;-77
2021/05/25 09:23:14;;;;;;;6.43;1.63;;;16.90;99.90;;;;;;6294793;22;20190;-78
2021/05/25 09:25:56;;;;;;;11.53;2.23;;;16.90;99.90;;;;;;6294293;22;20651;-76
2021/05/25 09:28:23;;;;;;;8.20;1.80;;;16.80;99.90;;;;;;6294988;22;20539;-78
2021/05/25 09:30:51;;;;;;;6.57;2.13;;;16.90;99.90;;;;;;6295508;22;20180;-77
2021/05/25 09:33:20;;;;;;;8.00;1.80;;;16.70;99.90;;;;;;6295363;22;20173;-78
2021/05/25 09:35:49;;;;;;;10.47;2.33;;;16.60;99.90;;;;;;6294833;22;20172;-78
2021/05/25 09:38:17;;;;;;;5.60;1.67;;;16.60;99.90;;;;;;6294922;22;20187;-78
2021/05/25 09:40:45;;;;;;;6.90;2.17;;;16.80;99.90;;;;;;6294542;22;20247;-78
2021/05/25 09:43:17;;;;;;;11.70;2.85;;;16.60;99.90;;;;;;6294419;22;20208;-78
2021/05/25 09:46:13;;;;;;;10.60;2.50;;;16.50;99.90;;;;;;6294092;22;20172;-77
2021/05/25 09:48:54;;;;;;;10.70;3.57;;;16.00;99.90;;;;;;6257366;22;20533;-80
2021/05/25 09:51:23;;;;;;;8.33;2.67;;;15.80;99.90;;;;;;6292785;22;20168;-79
2021/05/25 09:53:50;;;;;;;15.73;3.50;;;15.50;99.90;;;;;;6294501;22;20526;-81
2021/05/25 09:56:22;;;;;;;13.83;3.40;;;15.50;99.90;;;;;;6294910;22;20186;-77
2021/05/25 09:58:48;;;;;;;11.03;3.10;;;15.50;99.90;;;;;;6294649;22;20199;-77
2021/05/25 10:01:15;;;;;;;8.03;2.20;;;15.80;99.90;;;;;;6294657;22;20200;-77
2021/05/25 10:03:45;;;;;;;9.50;3.37;;;16.00;99.90;;;;;;6294369;22;20179;-77
2021/05/25 10:06:12;;;;;;;12.07;2.90;;;15.90;99.90;;;;;;6293712;22;20175;-77
2021/05/25 10:08:42;;;;;;;12.77;3.67;;;15.60;99.90;;;;;;6295600;22;20172;-77
2021/05/25 10:11:09;;;;;;;10.50;4.33;;;15.20;99.90;;;;;;6293716;22;20179;-76
2021/05/25 10:13:36;;;;;;;10.93;2.80;;;15.10;99.90;;;;;;6294583;22;20184;-77
2021/05/25 10:16:03;;;;;;;10.00;3.50;;;15.10;99.90;;;;;;6294211;22;20173;-79
2021/05/25 10:18:36;;;;;;;9.23;3.10;;;15.00;99.90;;;;;;6294218;22;20538;-77
2021/05/25 10:21:06;;;;;;;9.90;2.57;;;15.10;99.90;;;;;;6294309;22;20282;-74
2021/05/25 10:23:33;;;;;;;7.23;2.87;;;15.30;99.90;;;;;;6294020;22;20164;-78
2021/05/25 10:26:03;;;;;;;9.07;3.10;;;15.10;99.90;;;;;;6295019;22;20207;-76
2021/05/25 10:28:30;;;;;;;9.40;2.90;;;15.20;99.90;;;;;;6295655;22;20172;-77
2021/05/25 10:30:57;;;;;;;8.07;3.13;;;15.40;99.90;;;;;;6295093;22;20168;-77
2021/05/25 10:33:26;;;;;;;15.33;3.47;;;15.40;99.90;;;;;;6296297;22;20176;-77
2021/05/25 10:36:05;;;;;;;13.47;3.87;;;15.40;99.90;;;;;;6295254;22;20236;-78
2021/05/25 10:38:33;;;;;;;8.90;3.00;;;15.40;99.90;;;;;;6296944;22;20168;-77
2021/05/25 10:41:02;;;;;;;9.17;3.40;;;15.70;99.90;;;;;;6295241;22;20220;-82
2021/05/25 10:43:45;;;;;;;10.83;3.03;;;16.00;99.90;;;;;;6293970;22;20258;-81
2021/05/25 10:46:31;;;;;;;9.27;3.47;;;16.30;99.90;;;;;;6293907;22;20807;-77
2021/05/25 10:49:10;;;;;;;8.93;3.10;;;16.80;99.90;;;;;;6294817;22;20176;-81
2021/05/25 10:52:16;;;;;;;5.13;2.28;;;17.30;99.90;;;;;;6294647;22;20776;-82
2021/05/25 10:54:55;;;;;;;12.53;4.30;;;17.60;99.90;;;;;;6295457;22;20444;-77
2021/05/25 10:57:38;;;;;;;12.85;3.22;;;17.40;99.90;;;;;;6294881;22;20242;-81
2021/05/25 11:00:11;;;;;;;9.77;3.83;;;17.40;99.90;;;;;;6293758;22;20530;-78
2021/05/25 11:02:58;;;;;;;9.45;3.30;;;17.40;99.90;;;;;;6294018;22;20217;-77
2021/05/25 11:05:54;;;;;;;12.37;3.60;;;17.60;99.90;;;;;;6293968;22;20169;-78
2021/05/25 11:08:37;;;;;;;7.38;2.72;;;17.70;99.90;;;;;;6267955;22;20255;-75
2021/05/25 11:11:15;;;;;;;6.70;2.90;;;17.80;99.90;;;;;;6293339;22;20615;-81
2021/05/25 11:13:45;;;;;;;7.63;3.10;;;17.70;99.90;;;;;;6294942;22;20175;-79
2021/05/25 11:16:15;;;;;;;8.95;3.03;;;17.50;99.90;;;;;;6295084;22;20183;-83
2021/05/25 11:18:45;;;;;;;8.57;3.28;;;17.40;99.90;;;;;;6294904;22;20259;-82
2021/05/25 11:21:44;;;;;;;7.97;2.88;;;17.20;99.90;;;;;;6295713;22;20227;-76
2021/05/25 11:24:28;;;;;;;7.70;3.13;;;17.10;99.90;;;;;;6293754;22;20436;-79
2021/05/25 11:26:57;;;;;;;8.05;3.00;;;17.00;99.90;;;;;;6294161;22;20198;-82
2021/05/25 11:29:25;;;;;;;8.97;2.90;;;16.90;99.90;;;;;;6292870;22;20218;-81
2021/05/25 11:31:52;;;;;;;10.73;2.67;;;17.00;99.90;;;;;;6293721;22;20584;-79
2021/05/25 11:34:24;;;;;;;7.17;2.60;;;16.90;99.90;;;;;;6293915;22;20172;-80
2021/05/25 11:36:55;;;;;;;6.07;1.88;;;17.10;99.90;;;;;;6293427;22;20156;-80
2021/05/25 11:39:22;;;;;;;7.17;1.93;;;17.20;99.90;;;;;;6294810;22;20187;-79
2021/05/25 11:41:48;;;;;;;6.33;2.10;;;16.90;99.90;;;;;;6295125;22;20195;-77
2021/05/25 11:44:17;;;;;;;7.97;2.13;;;16.50;99.90;;;;;;6294837;22;20192;-79
2021/05/25 11:46:46;;;;;;;5.20;1.90;;;16.30;99.90;;;;;;6294072;22;20203;-80
2021/05/25 11:49:14;;;;;;;4.87;2.40;;;16.30;99.90;;;;;;6295125;22;20233;-82
2021/05/25 11:51:41;;;;;;;5.30;2.83;;;16.60;99.90;;;;;;6295018;22;20221;-77
2021/05/25 11:54:09;;;;;;;6.83;1.87;;;16.80;99.90;;;;;;6294614;22;20558;-82
2021/05/25 11:56:36;;;;;;;5.30;1.77;;;16.50;99.90;;;;;;6294761;22;20179;-81
2021/05/25 11:59:04;;;;;;;7.30;2.17;;;16.50;99.90;;;;;;6294019;22;20464;-79
2021/05/25 12:01:45;;;;;;;6.13;1.70;;;16.70;99.90;;;;;;6294724;22;20543;-77
2021/05/25 12:04:13;;;;;;;7.43;2.03;;;16.40;99.90;;;;;;6294254;22;20571;-78
2021/05/25 12:06:51;;;;;;;6.17;1.70;;;16.20;99.90;;;;;;6294994;22;20179;-81
2021/05/25 12:09:18;;;;;;;5.90;1.90;;;16.20;99.90;;;;;;6295058;22;20172;-80
2021/05/25 12:11:46;;;;;;;6.13;1.87;;;16.20;99.90;;;;;;6296510;22;20246;-78
2021/05/25 12:14:14;;;;;;;7.10;2.33;;;16.30;99.90;;;;;;6294213;22;20168;-79
2021/05/25 12:16:41;;;;;;;8.57;2.40;;;16.00;99.90;;;;;;6295831;22;20175;-77
2021/05/25 12:19:09;;;;;;;5.67;2.10;;;15.70;99.90;;;;;;6294789;22;20229;-77
2021/05/25 12:21:36;;;;;;;4.40;1.47;;;15.50;99.90;;;;;;6293921;22;20274;-78
2021/05/25 12:24:03;;;;;;;5.50;1.53;;;15.30;99.90;;;;;;6294196;22;20168;-81
2021/05/25 12:26:30;;;;;;;7.73;1.47;;;15.10;99.90;;;;;;6293850;22;20172;-81
2021/05/25 12:28:56;;;;;;;7.00;1.43;;;15.00;99.90;;;;;;6294367;22;20584;-80
2021/05/25 12:31:29;;;;;;;5.00;1.40;;;14.90;99.90;;;;;;6295432;22;20172;-78
2021/05/25 12:33:56;;;;;;;9.10;1.90;;;14.60;99.90;;;;;;6294349;22;20175;-76
2021/05/25 12:36:29;;;;;;;7.30;2.30;;;14.60;99.90;;;;;;6294822;22;20175;-77
2021/05/25 12:38:57;;;;;;;7.10;2.53;;;14.50;99.90;;;;;;6294905;22;20237;-75
2021/05/25 12:41:24;;;;;;;5.20;2.37;;;14.40;99.90;;;;;;6296894;22;20191;-79
2021/05/25 12:43:50;;;;;;;5.83;1.83;;;14.20;99.90;;;;;;6297674;22;20211;-80
2021/05/25 12:46:16;;;;;;;6.93;1.93;;;14.00;99.90;;;;;;6298124;22;20177;-77
2021/05/25 12:48:46;;;;;;;4.03;2.23;;;13.90;99.90;;;;;;6297448;22;20171;-82
2021/05/25 12:51:13;;;;;;;5.57;1.90;;;13.70;99.90;;;;;;6298244;22;20243;-76